sensor_id;sensor_type;location;lat;lon;timestamp;pressure;altitude;pressure_sealevel;temperature;humidity
22605;BME280;11469;49.024;8.246;2022-12-18T00:01:30;101705.66;;;-7.88;100.00
22605;BME280;11469;49.024;8.246;2022-12-18T00:03:57;101708.41;;;-7.82;100.00
22605;BME280;11469;49.024;8.246;2022-12-18T00:06:24;101701.69;;;-7.99;100.00
22605;BME280;11469;49.024;8.246;2022-12-18T00:08:49;101698.56;;;-7.89;100.00
22605;BME280;11469;49.024;8.246;2022-12-18T00:11:21;101702.09;;;-7.95;100.00
22605;BME280;11469;49.024;8.246;2022-12-18T00:13:48;101700.41;;;-8.03;100.00
22605;BME280;11469;49.024;8.246;2022-12-18T00:16:16;101695.22;;;-8.05;100.00
22605;BME280;11469;49.024;8.246;2022-12-18T00:18:42;101698.34;;;-7.81;100.00
22605;BME280;11469;49.024;8.246;2022-12-18T00:21:10;101698.34;;;-7.81;100.00
22605;BME280;11469;49.024;8.246;2022-12-18T00:23:36;101705.47;;;-7.80;100.00
22605;BME280;11469;49.024;8.246;2022-12-18T00:26:04;101687.47;;;-7.75;100.00
22605;BME280;11469;49.024;8.246;2022-12-18T00:28:30;101696.88;;;-7.97;100.00
22605;BME280;11469;49.024;8.246;2022-12-18T00:31:02;101702.53;;;-8.05;100.00
22605;BME280;11469;49.024;8.246;2022-12-18T00:33:27;101715.09;;;-8.11;100.00
22605;BME280;11469;49.024;8.246;2022-12-18T00:35:53;101715.28;;;-8.12;100.00
22605;BME280;11469;49.024;8.246;2022-12-18T00:38:18;101723.03;;;-8.09;100.00
22605;BME280;11469;49.024;8.246;2022-12-18T00:40:44;101719.88;;;-7.99;100.00
22605;BME280;11469;49.024;8.246;2022-12-18T00:43:09;101712.56;;;-8.12;100.00
22605;BME280;11469;49.024;8.246;2022-12-18T00:45:34;101709.00;;;-8.13;100.00
22605;BME280;11469;49.024;8.246;2022-12-18T00:48:00;101709.84;;;-8.12;100.00
22605;BME280;11469;49.024;8.246;2022-12-18T00:50:25;101690.38;;;-8.22;100.00
22605;BME280;11469;49.024;8.246;2022-12-18T00:52:51;101700.84;;;-8.19;100.00
22605;BME280;11469;49.024;8.246;2022-12-18T00:55:17;101709.22;;;-8.14;100.00
22605;BME280;11469;49.024;8.246;2022-12-18T00:57:42;101705.69;;;-8.08;100.00
22605;BME280;11469;49.024;8.246;2022-12-18T01:00:11;101699.19;;;-8.07;100.00
22605;BME280;11469;49.024;8.246;2022-12-18T01:02:36;101700.66;;;-8.05;100.00
22605;BME280;11469;49.024;8.246;2022-12-18T01:05:02;101718.03;;;-7.92;100.00
22605;BME280;11469;49.024;8.246;2022-12-18T01:07:28;101711.53;;;-7.98;100.00
22605;BME280;11469;49.024;8.246;2022-12-18T01:09:53;101711.53;;;-8.05;100.00
22605;BME280;11469;49.024;8.246;2022-12-18T01:12:19;101710.91;;;-8.07;100.00
22605;BME280;11469;49.024;8.246;2022-12-18T01:14:44;101706.28;;;-7.99;100.00
22605;BME280;11469;49.024;8.246;2022-12-18T01:17:09;101715.28;;;-8.12;100.00
22605;BME280;11469;49.024;8.246;2022-12-18T01:19:35;101717.78;;;-8.17;100.00
22605;BME280;11469;49.024;8.246;2022-12-18T01:22:00;101701.47;;;-8.17;100.00
22605;BME280;11469;49.024;8.246;2022-12-18T01:24:26;101694.16;;;-8.04;100.00
22605;BME280;11469;49.024;8.246;2022-12-18T01:26:51;101694.97;;;-8.03;100.00
22605;BME280;11469;49.024;8.246;2022-12-18T01:29:16;101693.34;;;-8.04;100.00
22605;BME280;11469;49.024;8.246;2022-12-18T01:31:42;101694.16;;;-8.04;100.00
22605;BME280;11469;49.024;8.246;2022-12-18T01:34:08;101704.81;;;-8.15;100.00
22605;BME280;11469;49.024;8.246;2022-12-18T01:36:36;101707.13;;;-8.12;100.00
22605;BME280;11469;49.024;8.246;2022-12-18T01:39:07;101715.28;;;-8.12;100.00
22605;BME280;11469;49.024;8.246;2022-12-18T01:41:34;101707.75;;;-8.17;100.00
22605;BME280;11469;49.024;8.246;2022-12-18T01:47:25;101718.63;;;-8.23;100.00
22605;BME280;11469;49.024;8.246;2022-12-18T01:49:51;101709.84;;;-8.19;100.00
22605;BME280;11469;49.024;8.246;2022-12-18T01:52:18;101704.00;;;-7.96;100.00
22605;BME280;11469;49.024;8.246;2022-12-18T01:54:46;101702.31;;;-7.97;100.00
22605;BME280;11469;49.024;8.246;2022-12-18T01:57:12;101704.19;;;-8.11;100.00
22605;BME280;11469;49.024;8.246;2022-12-18T01:59:38;101709.41;;;-8.22;100.00
22605;BME280;11469;49.024;8.246;2022-12-18T02:02:06;101707.31;;;-8.27;100.00
22605;BME280;11469;49.024;8.246;2022-12-18T02:04:32;101713.19;;;-8.17;100.00
22605;BME280;11469;49.024;8.246;2022-12-18T02:07:07;101712.16;;;-8.09;100.00
22605;BME280;11469;49.024;8.246;2022-12-18T02:09:45;101723.03;;;-8.03;100.00
22605;BME280;11469;49.024;8.246;2022-12-18T02:12:23;101716.97;;;-8.18;100.00
22605;BME280;11469;49.024;8.246;2022-12-18T02:14:57;101721.34;;;-8.17;100.00
22605;BME280;11469;49.024;8.246;2022-12-18T02:20:18;101716.75;;;-7.90;100.00
22605;BME280;11469;49.024;8.246;2022-12-18T02:22:54;101715.31;;;-8.06;100.00
22605;BME280;11469;49.024;8.246;2022-12-18T02:26:09;101716.34;;;-8.13;100.00
22605;BME280;11469;49.024;8.246;2022-12-18T02:28:16;101713.00;;;-7.89;100.00
22605;BME280;11469;49.024;8.246;2022-12-18T02:30:47;101712.78;;;-8.00;100.00
22605;BME280;11469;49.024;8.246;2022-12-18T02:33:14;101728.06;;;-8.13;100.00
22605;BME280;11469;49.024;8.246;2022-12-18T02:35:41;101721.56;;;-8.18;100.00
22605;BME280;11469;49.024;8.246;2022-12-18T02:38:09;101716.16;;;-8.05;100.00
22605;BME280;11469;49.024;8.246;2022-12-18T02:40:35;101721.34;;;-8.17;100.00
22605;BME280;11469;49.024;8.246;2022-12-18T02:43:14;101717.78;;;-8.24;100.00
22605;BME280;11469;49.024;8.246;2022-12-18T02:45:48;101703.16;;;-7.90;100.00
22605;BME280;11469;49.024;8.246;2022-12-18T02:48:16;101713.41;;;-7.98;100.00
22605;BME280;11469;49.024;8.246;2022-12-18T02:50:52;101716.75;;;-7.90;100.00
22605;BME280;11469;49.024;8.246;2022-12-18T02:53:31;101718.22;;;-7.94;100.00
22605;BME280;11469;49.024;8.246;2022-12-18T02:56:26;101718.00;;;-7.99;100.00
22605;BME280;11469;49.024;8.246;2022-12-18T02:59:02;101730.56;;;-8.11;100.00
22605;BME280;11469;49.024;8.246;2022-12-18T03:01:45;101729.09;;;-8.14;100.00
22605;BME280;11469;49.024;8.246;2022-12-18T03:04:28;101721.97;;;-8.02;100.00
22605;BME280;11469;49.024;8.246;2022-12-18T03:06:58;101722.41;;;-7.98;100.00
22605;BME280;11469;49.024;8.246;2022-12-18T03:09:34;101724.91;;;-7.96;100.00
22605;BME280;11469;49.024;8.246;2022-12-18T03:12:21;101727.03;;;-7.92;100.00
22605;BME280;11469;49.024;8.246;2022-12-18T03:17:41;101729.53;;;-7.84;100.00
22605;BME280;11469;49.024;8.246;2022-12-18T03:20:17;101722.44;;;-7.78;100.00
22605;BME280;11469;49.024;8.246;2022-12-18T03:22:44;101722.44;;;-7.85;100.00
22605;BME280;11469;49.024;8.246;2022-12-18T03:25:13;101724.94;;;-7.90;100.00
22605;BME280;11469;49.024;8.246;2022-12-18T03:27:44;101734.75;;;-7.95;100.00
22605;BME280;11469;49.024;8.246;2022-12-18T03:30:12;101727.44;;;-8.08;100.00
22605;BME280;11469;49.024;8.246;2022-12-18T03:32:52;101718.88;;;-8.05;100.00
22605;BME280;11469;49.024;8.246;2022-12-18T03:35:28;101711.31;;;-8.10;100.00
22605;BME280;11469;49.024;8.246;2022-12-18T03:37:55;101718.44;;;-8.15;100.00
22605;BME280;11469;49.024;8.246;2022-12-18T03:40:37;101707.97;;;-8.12;100.00
22605;BME280;11469;49.024;8.246;2022-12-18T03:43:41;101710.06;;;-8.00;100.00
22605;BME280;11469;49.024;8.246;2022-12-18T03:46:12;101709.00;;;-7.93;100.00
22605;BME280;11469;49.024;8.246;2022-12-18T03:48:48;101714.25;;;-8.11;100.00
22605;BME280;11469;49.024;8.246;2022-12-18T03:52:04;101710.47;;;-8.17;100.00
22605;BME280;11469;49.024;8.246;2022-12-18T03:54:10;101704.19;;;-8.11;100.00
22605;BME280;11469;49.024;8.246;2022-12-18T03:56:41;101701.28;;;-8.09;100.00
22605;BME280;11469;49.024;8.246;2022-12-18T03:59:08;101706.69;;;-8.29;100.00
22605;BME280;11469;49.024;8.246;2022-12-18T04:01:43;101710.44;;;-8.30;100.00
22605;BME280;11469;49.024;8.246;2022-12-18T04:04:12;101706.50;;;-8.14;100.00
22605;BME280;11469;49.024;8.246;2022-12-18T04:06:40;101707.72;;;-8.23;100.00
22605;BME280;11469;49.024;8.246;2022-12-18T04:09:07;101712.13;;;-8.29;100.00
22605;BME280;11469;49.024;8.246;2022-12-18T04:11:33;101716.09;;;-8.38;100.00
22605;BME280;11469;49.024;8.246;2022-12-18T04:13:58;101710.63;;;-8.45;100.00
22605;BME280;11469;49.024;8.246;2022-12-18T04:16:26;101715.66;;;-8.48;100.00
22605;BME280;11469;49.024;8.246;2022-12-18T04:18:52;101720.44;;;-8.63;100.00
22605;BME280;11469;49.024;8.246;2022-12-18T04:21:17;101711.41;;;-8.71;100.00
22605;BME280;11469;49.024;8.246;2022-12-18T04:23:42;101706.81;;;-8.70;100.00
22605;BME280;11469;49.024;8.246;2022-12-18T04:26:08;101705.75;;;-8.69;100.00
22605;BME280;11469;49.024;8.246;2022-12-18T04:28:33;101713.72;;;-8.67;100.00
22605;BME280;11469;49.024;8.246;2022-12-18T04:30:59;101712.69;;;-8.66;100.00
22605;BME280;11469;49.024;8.246;2022-12-18T04:33:24;101711.19;;;-8.76;100.00
22605;BME280;11469;49.024;8.246;2022-12-18T04:35:50;101711.75;;;-8.87;100.00
22605;BME280;11469;49.024;8.246;2022-12-18T04:38:15;101716.78;;;-8.84;100.00
22605;BME280;11469;49.024;8.246;2022-12-18T04:40:41;101714.50;;;-8.80;100.00
22605;BME280;11469;49.024;8.246;2022-12-18T04:43:06;101717.03;;;-8.72;100.00
22605;BME280;11469;49.024;8.246;2022-12-18T04:45:32;101721.25;;;-8.69;100.00
22605;BME280;11469;49.024;8.246;2022-12-18T04:47:58;101713.72;;;-8.67;100.00
22605;BME280;11469;49.024;8.246;2022-12-18T04:50:23;101704.53;;;-8.60;100.00
22605;BME280;11469;49.024;8.246;2022-12-18T04:52:49;101720.25;;;-8.55;100.00
22605;BME280;11469;49.024;8.246;2022-12-18T04:55:14;101724.44;;;-8.53;100.00
22605;BME280;11469;49.024;8.246;2022-12-18T04:57:40;101724.00;;;-8.50;100.00
22605;BME280;11469;49.024;8.246;2022-12-18T05:00:06;101725.06;;;-8.51;100.00
22605;BME280;11469;49.024;8.246;2022-12-18T05:02:32;101722.75;;;-8.47;100.00
22605;BME280;11469;49.024;8.246;2022-12-18T05:04:57;101728.63;;;-8.44;100.00
22605;BME280;11469;49.024;8.246;2022-12-18T05:07:23;101728.84;;;-8.39;100.00
22605;BME280;11469;49.024;8.246;2022-12-18T05:09:48;101734.50;;;-8.40;100.00
22605;BME280;11469;49.024;8.246;2022-12-18T05:12:13;101727.34;;;-8.48;100.00
22605;BME280;11469;49.024;8.246;2022-12-18T05:14:39;101729.03;;;-8.47;100.00
22605;BME280;11469;49.024;8.246;2022-12-18T05:17:04;101726.13;;;-8.45;100.00
22605;BME280;11469;49.024;8.246;2022-12-18T05:19:30;101724.25;;;-8.38;100.00
22605;BME280;11469;49.024;8.246;2022-12-18T05:21:55;101730.13;;;-8.34;100.00
22605;BME280;11469;49.024;8.246;2022-12-18T05:24:21;101735.78;;;-8.36;100.00
22605;BME280;11469;49.024;8.246;2022-12-18T05:26:46;101725.72;;;-8.35;100.00
22605;BME280;11469;49.024;8.246;2022-12-18T05:29:12;101721.53;;;-8.31;100.00
22605;BME280;11469;49.024;8.246;2022-12-18T05:31:38;101725.91;;;-8.30;100.00
22605;BME280;11469;49.024;8.246;2022-12-18T05:34:04;101742.47;;;-8.25;100.00
22605;BME280;11469;49.024;8.246;2022-12-18T05:36:30;101735.38;;;-8.20;100.00
22605;BME280;11469;49.024;8.246;2022-12-18T05:38:55;101727.00;;;-8.18;100.00
22605;BME280;11469;49.024;8.246;2022-12-18T05:41:20;101720.50;;;-8.24;100.00
22605;BME280;11469;49.024;8.246;2022-12-18T05:43:46;101722.59;;;-8.19;100.00
22605;BME280;11469;49.024;8.246;2022-12-18T05:46:14;101732.25;;;-8.17;100.00
22605;BME280;11469;49.024;8.246;2022-12-18T05:48:41;101732.66;;;-8.20;100.00
22605;BME280;11469;49.024;8.246;2022-12-18T05:51:10;101728.47;;;-8.16;100.00
22605;BME280;11469;49.024;8.246;2022-12-18T05:53:36;101721.38;;;-8.10;100.00
22605;BME280;11469;49.024;8.246;2022-12-18T05:56:04;101732.03;;;-8.15;100.00
22605;BME280;11469;49.024;8.246;2022-12-18T05:58:30;101734.97;;;-8.17;100.00
22605;BME280;11469;49.024;8.246;2022-12-18T06:00:56;101748.75;;;-8.18;100.00
22605;BME280;11469;49.024;8.246;2022-12-18T06:03:21;101750.44;;;-8.17;100.00
22605;BME280;11469;49.024;8.246;2022-12-18T06:05:47;101748.78;;;-8.12;100.00
22605;BME280;11469;49.024;8.246;2022-12-18T06:08:13;101748.56;;;-8.10;100.00
22605;BME280;11469;49.024;8.246;2022-12-18T06:10:39;101743.78;;;-8.08;100.00
22605;BME280;11469;49.024;8.246;2022-12-18T06:13:05;101751.06;;;-8.02;100.00
22605;BME280;11469;49.024;8.246;2022-12-18T06:15:32;101760.09;;;-7.95;100.00
22605;BME280;11469;49.024;8.246;2022-12-18T06:17:58;101760.94;;;-7.94;100.00
22605;BME280;11469;49.024;8.246;2022-12-18T06:20:23;101767.44;;;-7.89;100.00
22605;BME280;11469;49.024;8.246;2022-12-18T06:22:48;101769.53;;;-7.84;100.00
22605;BME280;11469;49.024;8.246;2022-12-18T06:25:14;101780.84;;;-7.81;100.00
22605;BME280;11469;49.024;8.246;2022-12-18T06:27:39;101778.13;;;-7.81;100.00
22605;BME280;11469;49.024;8.246;2022-12-18T06:30:06;101777.09;;;-7.80;100.00
22605;BME280;11469;49.024;8.246;2022-12-18T06:32:31;101776.44;;;-7.82;100.00
22605;BME280;11469;49.024;8.246;2022-12-18T06:34:57;101779.19;;;-7.82;100.00
22605;BME280;11469;49.024;8.246;2022-12-18T06:37:22;101785.47;;;-7.81;100.00
22605;BME280;11469;49.024;8.246;2022-12-18T06:39:54;101794.06;;;-7.78;100.00
22605;BME280;11469;49.024;8.246;2022-12-18T06:42:19;101787.56;;;-7.70;100.00
22605;BME280;11469;49.024;8.246;2022-12-18T06:44:45;101789.47;;;-7.64;100.00
22605;BME280;11469;49.024;8.246;2022-12-18T06:47:10;101794.72;;;-7.62;100.00
22605;BME280;11469;49.024;8.246;2022-12-18T06:49:36;101795.13;;;-7.65;100.00
22605;BME280;11469;49.024;8.246;2022-12-18T06:52:01;101800.34;;;-7.64;100.00
22605;BME280;11469;49.024;8.246;2022-12-18T06:54:26;101803.31;;;-7.59;100.00
22605;BME280;11469;49.024;8.246;2022-12-18T06:56:52;101803.47;;;-7.54;100.00
22605;BME280;11469;49.024;8.246;2022-12-18T06:59:17;101795.53;;;-7.62;100.00
22605;BME280;11469;49.024;8.246;2022-12-18T07:01:43;101795.75;;;-7.63;100.00
22605;BME280;11469;49.024;8.246;2022-12-18T07:04:08;101790.94;;;-7.61;100.00
22605;BME280;11469;49.024;8.246;2022-12-18T07:06:33;101802.88;;;-7.62;100.00
22605;BME280;11469;49.024;8.246;2022-12-18T07:08:59;101810.63;;;-7.66;100.00
22605;BME280;11469;49.024;8.246;2022-12-18T07:11:24;101809.78;;;-7.66;100.00
22605;BME280;11469;49.024;8.246;2022-12-18T07:13:50;101798.91;;;-7.60;100.00
22605;BME280;11469;49.024;8.246;2022-12-18T07:16:17;101806.88;;;-7.58;100.00
22605;BME280;11469;49.024;8.246;2022-12-18T07:18:43;101802.88;;;-7.62;100.00
22605;BME280;11469;49.024;8.246;2022-12-18T07:21:11;101807.91;;;-7.66;100.00
22605;BME280;11469;49.024;8.246;2022-12-18T07:23:38;101803.94;;;-7.63;100.00
22605;BME280;11469;49.024;8.246;2022-12-18T07:26:04;101807.88;;;-7.53;100.00
22605;BME280;11469;49.024;8.246;2022-12-18T07:28:31;101813.13;;;-7.51;100.00
22605;BME280;11469;49.024;8.246;2022-12-18T07:30:57;101812.72;;;-7.48;100.00
22605;BME280;11469;49.024;8.246;2022-12-18T07:33:22;101822.34;;;-7.46;100.00
22605;BME280;11469;49.024;8.246;2022-12-18T07:35:47;101814.19;;;-7.39;100.00
22605;BME280;11469;49.024;8.246;2022-12-18T07:38:13;101819.00;;;-7.41;100.00
22605;BME280;11469;49.024;8.246;2022-12-18T07:40:38;101823.63;;;-7.28;100.00
22605;BME280;11469;49.024;8.246;2022-12-18T07:43:03;101825.09;;;-7.39;100.00
22605;BME280;11469;49.024;8.246;2022-12-18T07:45:29;101832.41;;;-7.40;100.00
22605;BME280;11469;49.024;8.246;2022-12-18T07:47:54;101829.91;;;-7.41;100.00
22605;BME280;11469;49.024;8.246;2022-12-18T07:50:20;101845.22;;;-7.33;100.00
22605;BME280;11469;49.024;8.246;2022-12-18T07:52:45;101841.22;;;-7.18;100.00
22605;BME280;11469;49.024;8.246;2022-12-18T07:55:10;101841.88;;;-7.16;100.00
22605;BME280;11469;49.024;8.246;2022-12-18T07:57:36;101848.16;;;-7.15;100.00
22605;BME280;11469;49.024;8.246;2022-12-18T08:00:02;101845.22;;;-7.20;100.00
22605;BME280;11469;49.024;8.246;2022-12-18T08:02:30;101848.16;;;-7.22;100.00
22605;BME280;11469;49.024;8.246;2022-12-18T08:04:56;101849.41;;;-7.24;100.00
22605;BME280;11469;49.024;8.246;2022-12-18T08:07:21;101846.47;;;-7.16;100.00
22605;BME280;11469;49.024;8.246;2022-12-18T08:09:47;101849.00;;;-7.15;100.00
22605;BME280;11469;49.024;8.246;2022-12-18T08:12:12;101858.22;;;-7.09;100.00
22605;BME280;11469;49.024;8.246;2022-12-18T08:14:37;101854.00;;;-7.05;100.00
22605;BME280;11469;49.024;8.246;2022-12-18T08:17:03;101860.72;;;-7.14;100.00
22605;BME280;11469;49.024;8.246;2022-12-18T08:19:28;101857.59;;;-7.18;100.00
22605;BME280;11469;49.024;8.246;2022-12-18T08:21:54;101856.31;;;-7.15;100.00
22605;BME280;11469;49.024;8.246;2022-12-18T08:24:19;101850.63;;;-7.07;100.00
22605;BME280;11469;49.024;8.246;2022-12-18T08:26:44;101856.09;;;-7.07;100.00
22605;BME280;11469;49.024;8.246;2022-12-18T08:29:10;101852.09;;;-7.05;100.00
22605;BME280;11469;49.024;8.246;2022-12-18T08:31:36;101855.25;;;-7.01;100.00
22605;BME280;11469;49.024;8.246;2022-12-18T08:34:01;101842.47;;;-7.07;100.00
22605;BME280;11469;49.024;8.246;2022-12-18T08:36:26;101839.72;;;-7.07;100.00
22605;BME280;11469;49.024;8.246;2022-12-18T08:38:52;101828.84;;;-7.00;100.00
22605;BME280;11469;49.024;8.246;2022-12-18T08:41:18;101822.13;;;-6.98;100.00
22605;BME280;11469;49.024;8.246;2022-12-18T08:43:44;101813.09;;;-6.85;100.00
22605;BME280;11469;49.024;8.246;2022-12-18T08:46:33;101814.34;;;-6.81;100.00
22605;BME280;11469;49.024;8.246;2022-12-18T08:48:59;101809.72;;;-6.81;100.00
22605;BME280;11469;49.024;8.246;2022-12-18T08:51:24;101800.50;;;-6.80;100.00
22605;BME280;11469;49.024;8.246;2022-12-18T08:53:50;101809.50;;;-6.79;100.00
22605;BME280;11469;49.024;8.246;2022-12-18T08:56:15;101799.22;;;-6.77;100.00
22605;BME280;11469;49.024;8.246;2022-12-18T08:58:41;101800.47;;;-6.73;100.00
22605;BME280;11469;49.024;8.246;2022-12-18T09:01:09;101793.56;;;-6.69;100.00
22605;BME280;11469;49.024;8.246;2022-12-18T09:03:35;101798.78;;;-6.67;100.00
22605;BME280;11469;49.024;8.246;2022-12-18T09:06:01;101797.34;;;-6.77;100.00
22605;BME280;11469;49.024;8.246;2022-12-18T09:08:27;101797.16;;;-6.82;100.00
22605;BME280;11469;49.024;8.246;2022-12-18T09:10:53;101796.28;;;-6.76;100.00
22605;BME280;11469;49.024;8.246;2022-12-18T09:13:19;101811.81;;;-6.70;100.00
22605;BME280;11469;49.024;8.246;2022-12-18T09:15:47;101811.38;;;-6.73;100.00
22605;BME280;11469;49.024;8.246;2022-12-18T09:18:14;101804.47;;;-6.76;100.00
22605;BME280;11469;49.024;8.246;2022-12-18T09:20:40;101817.03;;;-6.68;100.00
22605;BME280;11469;49.024;8.246;2022-12-18T09:23:05;101822.88;;;-6.58;100.00
22605;BME280;11469;49.024;8.246;2022-12-18T09:25:32;101830.44;;;-6.60;100.00
22605;BME280;11469;49.024;8.246;2022-12-18T09:28:17;101830.84;;;-6.56;100.00
22605;BME280;11469;49.024;8.246;2022-12-18T09:30:47;101847.63;;;-6.53;100.00
22605;BME280;11469;49.024;8.246;2022-12-18T09:33:14;101855.38;;;-6.50;100.00
22605;BME280;11469;49.024;8.246;2022-12-18T09:35:40;101856.03;;;-6.61;100.00
22605;BME280;11469;49.024;8.246;2022-12-18T09:38:08;101845.09;;;-6.54;100.00
22605;BME280;11469;49.024;8.246;2022-12-18T09:40:41;101836.69;;;-6.46;100.00
22605;BME280;11469;49.024;8.246;2022-12-18T09:43:14;101836.25;;;-6.43;100.00
22605;BME280;11469;49.024;8.246;2022-12-18T09:45:44;101842.56;;;-6.43;100.00
22605;BME280;11469;49.024;8.246;2022-12-18T09:48:26;101850.06;;;-6.31;100.00
22605;BME280;11469;49.024;8.246;2022-12-18T09:50:56;101859.53;;;-6.34;100.00
22605;BME280;11469;49.024;8.246;2022-12-18T09:53:26;101859.31;;;-6.32;100.00
22605;BME280;11469;49.024;8.246;2022-12-18T09:55:54;101868.13;;;-6.30;100.00
22605;BME280;11469;49.024;8.246;2022-12-18T09:58:46;101878.44;;;-6.32;100.00
22605;BME280;11469;49.024;8.246;2022-12-18T10:01:21;101869.19;;;-6.31;100.00
22605;BME280;11469;49.024;8.246;2022-12-18T10:03:48;101876.50;;;-6.25;100.00
22605;BME280;11469;49.024;8.246;2022-12-18T10:06:20;101881.53;;;-6.16;100.00
22605;BME280;11469;49.024;8.246;2022-12-18T10:08:59;101872.22;;;-6.08;100.00
22605;BME280;11469;49.024;8.246;2022-12-18T10:14:33;101870.84;;;-6.24;100.00
22605;BME280;11469;49.024;8.246;2022-12-18T10:22:12;101856.72;;;-6.14;100.00
22605;BME280;11469;49.024;8.246;2022-12-18T10:25:02;101857.72;;;-6.02;100.00
22605;BME280;11469;49.024;8.246;2022-12-18T10:27:30;101851.41;;;-6.03;100.00
22605;BME280;11469;49.024;8.246;2022-12-18T10:29:56;101853.94;;;-6.01;100.00
22605;BME280;11469;49.024;8.246;2022-12-18T10:32:25;101853.53;;;-6.05;100.00
22605;BME280;11469;49.024;8.246;2022-12-18T10:34:53;101849.50;;;-5.95;100.00
22605;BME280;11469;49.024;8.246;2022-12-18T10:37:23;101859.63;;;-6.09;100.00
22605;BME280;11469;49.024;8.246;2022-12-18T10:42:35;101853.38;;;-6.16;100.00
22605;BME280;11469;49.024;8.246;2022-12-18T10:45:05;101859.69;;;-6.16;100.00
22605;BME280;11469;49.024;8.246;2022-12-18T10:47:33;101850.94;;;-5.93;100.00
22605;BME280;11469;49.024;8.246;2022-12-18T10:49:58;101838.16;;;-5.99;100.00
22605;BME280;11469;49.024;8.246;2022-12-18T10:52:25;101836.25;;;-5.92;100.00
22605;BME280;11469;49.024;8.246;2022-12-18T10:54:59;101839.03;;;-6.05;100.00
22605;BME280;11469;49.024;8.246;2022-12-18T10:57:39;101832.75;;;-6.06;100.00
22605;BME280;11469;49.024;8.246;2022-12-18T11:02:50;101856.66;;;-6.01;100.00
22605;BME280;11469;49.024;8.246;2022-12-18T11:07:49;101849.91;;;-5.92;100.00
22605;BME280;11469;49.024;8.246;2022-12-18T11:10:19;101839.72;;;-5.78;100.00
22605;BME280;11469;49.024;8.246;2022-12-18T11:12:46;101842.63;;;-5.73;100.00
22605;BME280;11469;49.024;8.246;2022-12-18T11:15:30;101852.22;;;-5.64;100.00
22605;BME280;11469;49.024;8.246;2022-12-18T11:17:56;101849.13;;;-5.68;100.00
22605;BME280;11469;49.024;8.246;2022-12-18T11:20:30;101849.47;;;-5.64;100.00
22605;BME280;11469;49.024;8.246;2022-12-18T11:23:01;101829.31;;;-5.63;100.00
22605;BME280;11469;49.024;8.246;2022-12-18T11:25:28;101839.84;;;-5.67;100.00
22605;BME280;11469;49.024;8.246;2022-12-18T11:27:59;101828.69;;;-5.65;100.00
22605;BME280;11469;49.024;8.246;2022-12-18T11:30:33;101823.44;;;-5.67;100.00
22605;BME280;11469;49.024;8.246;2022-12-18T11:33:11;101817.72;;;-5.58;100.00
22605;BME280;11469;49.024;8.246;2022-12-18T11:35:46;101822.00;;;-5.69;100.00
22605;BME280;11469;49.024;8.246;2022-12-18T11:40:40;101819.75;;;-5.47;100.00
22605;BME280;11469;49.024;8.246;2022-12-18T11:43:17;101823.28;;;-5.40;100.00
22605;BME280;11469;49.024;8.246;2022-12-18T11:45:55;101811.53;;;-5.47;100.00
22605;BME280;11469;49.024;8.246;2022-12-18T11:48:24;101812.34;;;-5.40;100.00
22605;BME280;11469;49.024;8.246;2022-12-18T11:50:54;101810.72;;;-5.23;100.00
22605;BME280;11469;49.024;8.246;2022-12-18T11:53:21;101802.59;;;-5.29;100.00
22605;BME280;11469;49.024;8.246;2022-12-18T11:56:16;101806.31;;;-5.49;100.00
22605;BME280;11469;49.024;8.246;2022-12-18T12:01:53;101789.38;;;-5.32;100.00
22605;BME280;11469;49.024;8.246;2022-12-18T12:04:35;101782.16;;;-5.27;100.00
22605;BME280;11469;49.024;8.246;2022-12-18T12:07:12;101775.81;;;-5.21;100.00
22605;BME280;11469;49.024;8.246;2022-12-18T12:09:52;101785.22;;;-5.17;100.00
22605;BME280;11469;49.024;8.246;2022-12-18T12:15:10;101781.19;;;-5.14;100.00
22605;BME280;11469;49.024;8.246;2022-12-18T12:17:42;101786.16;;;-5.05;100.00
22605;BME280;11469;49.024;8.246;2022-12-18T12:20:19;101784.09;;;-5.09;100.00
22605;BME280;11469;49.024;8.246;2022-12-18T12:25:37;101787.94;;;-5.17;100.00
22605;BME280;11469;49.024;8.246;2022-12-18T12:34:31;101790.03;;;-4.94;100.00
22605;BME280;11469;49.024;8.246;2022-12-18T12:39:51;101794.31;;;-4.80;100.00
22605;BME280;11469;49.024;8.246;2022-12-18T12:42:38;101792.44;;;-4.79;100.00
22605;BME280;11469;49.024;8.246;2022-12-18T12:45:44;101791.38;;;-4.78;100.00
22605;BME280;11469;49.024;8.246;2022-12-18T12:48:51;101785.75;;;-4.83;100.00
22605;BME280;11469;49.024;8.246;2022-12-18T12:51:22;101777.47;;;-4.77;100.00
22605;BME280;11469;49.024;8.246;2022-12-18T12:53:49;101775.41;;;-4.81;100.00
22605;BME280;11469;49.024;8.246;2022-12-18T12:56:18;101776.03;;;-4.79;100.00
22605;BME280;11469;49.024;8.246;2022-12-18T13:03:58;101757.69;;;-4.60;100.00
22605;BME280;11469;49.024;8.246;2022-12-18T13:09:18;101743.03;;;-4.84;100.00
22605;BME280;11469;49.024;8.246;2022-12-18T13:11:45;101748.28;;;-4.83;100.00
22605;BME280;11469;49.024;8.246;2022-12-18T13:14:35;101747.59;;;-4.78;100.00
22605;BME280;11469;49.024;8.246;2022-12-18T13:20:09;101733.22;;;-4.92;100.00
22605;BME280;11469;49.024;8.246;2022-12-18T13:22:47;101719.31;;;-4.72;100.00
22605;BME280;11469;49.024;8.246;2022-12-18T13:25:31;101728.13;;;-4.70;100.00
22605;BME280;11469;49.024;8.246;2022-12-18T13:28:09;101729.66;;;-4.74;100.00
22605;BME280;11469;49.024;8.246;2022-12-18T13:30:58;101728.09;;;-4.33;100.00
22605;BME280;11469;49.024;8.246;2022-12-18T13:38:39;101717.25;;;-4.58;100.00
22605;BME280;11469;49.024;8.246;2022-12-18T13:46:49;101717.63;;;-4.55;100.00
22605;BME280;11469;49.024;8.246;2022-12-18T13:51:42;101710.25;;;-4.54;100.00
22605;BME280;11469;49.024;8.246;2022-12-18T13:56:43;101705.31;;;-4.46;100.00
22605;BME280;11469;49.024;8.246;2022-12-18T14:01:51;101701.88;;;-4.41;100.00
22605;BME280;11469;49.024;8.246;2022-12-18T14:04:27;101714.34;;;-4.45;100.00
22605;BME280;11469;49.024;8.246;2022-12-18T14:06:57;101706.66;;;-4.37;100.00